Main page
METAR-TAF:

METAR-TAF

Airports :

Sofia Airport

Sofia, Bulgaria

latitude: 42-39N, longitude: 023-23E, elevation: 586 m

Current weather observation

The report was made 30 minutes ago, at 07:00 UTC
Wind 2 kt from variable directions
Temperature -6°C
Humidity 79%
Pressure 1036 hPa
Visibility 10 km or more
Few clouds at a height of 7000 ft

METAR: LBSF 080700Z VRB02KT 9999 FEW070 M06/M09 Q1036 NOSIG

Time: 09:30 (07:30 UTC)

Forecast

The report was made 2 hours and 30 minutes ago, at 05:00 UTC
Forecast valid from 08 at 06 UTC to 09 at 06 UTC
Wind 4 kt from variable directions
Visibility 10 km or more
Scattered clouds at a height of 2000 ft
Broken clouds at a height of 4000 ft
Becoming
from 08 at 09 UTC to 08 at 11 UTC
Wind 12 kt from the Northeast
Becoming
from 08 at 18 UTC to 08 at 20 UTC
Wind 4 kt from variable directions

TAF: LBSF 080500Z 0806/0906 VRB04KT 9999 SCT020 BKN040 BECMG 0809/0811 05012KT BECMG 0818/0820 VRB04KT

Weather observations and forecasts of more than 4000 airports (METAR and TAF reports).

The available stations are represented by yellow and red dots on the map.

Hover mouse over dot to see the name of the station.

Then click to see weather observations and forecasts.

To change the map : click on the green buttons with a black cross to zoom in, on the green button with a dash to zoom out, or on the green arrows for adjacent maps.


METAR-TAF: